sensor_id;sensor_type;location;lat;lon;timestamp;pressure;altitude;pressure_sealevel;temperature;humidity
24962;BME280;12992;50.884;13.668;2023-11-21T00:01:15;96605.81;;;7.71;100.00
24962;BME280;12992;50.884;13.668;2023-11-21T00:03:40;96606.13;;;7.75;100.00
24962;BME280;12992;50.884;13.668;2023-11-21T00:06:06;96600.16;;;7.73;100.00
24962;BME280;12992;50.884;13.668;2023-11-21T00:08:34;96602.28;;;7.71;100.00
24962;BME280;12992;50.884;13.668;2023-11-21T00:11:00;96604.44;;;7.69;100.00
24962;BME280;12992;50.884;13.668;2023-11-21T00:13:25;96604.44;;;7.69;100.00
24962;BME280;12992;50.884;13.668;2023-11-21T00:15:51;96607.91;;;7.64;100.00
24962;BME280;12992;50.884;13.668;2023-11-21T00:18:16;96613.88;;;7.66;100.00
24962;BME280;12992;50.884;13.668;2023-11-21T00:20:41;96611.44;;;7.64;100.00
24962;BME280;12992;50.884;13.668;2023-11-21T00:23:07;96608.66;;;7.59;100.00
24962;BME280;12992;50.884;13.668;2023-11-21T00:25:32;96613.25;;;7.59;100.00
24962;BME280;12992;50.884;13.668;2023-11-21T00:27:58;96609.69;;;7.53;100.00
24962;BME280;12992;50.884;13.668;2023-11-21T00:30:23;96614.78;;;7.50;100.00
24962;BME280;12992;50.884;13.668;2023-11-21T00:32:48;96614.19;;;7.43;100.00
24962;BME280;12992;50.884;13.668;2023-11-21T00:35:14;96615.81;;;7.44;100.00
24962;BME280;12992;50.884;13.668;2023-11-21T00:37:39;96606.88;;;7.43;100.00
24962;BME280;12992;50.884;13.668;2023-11-21T00:40:05;96612.50;;;7.42;100.00
24962;BME280;12992;50.884;13.668;2023-11-21T00:42:32;96611.13;;;7.39;100.00
24962;BME280;12992;50.884;13.668;2023-11-21T00:44:59;96621.16;;;7.38;100.00
24962;BME280;12992;50.884;13.668;2023-11-21T00:47:24;96620.34;;;7.38;100.00
24962;BME280;12992;50.884;13.668;2023-11-21T00:49:49;96622.53;;;7.41;100.00
24962;BME280;12992;50.884;13.668;2023-11-21T00:52:15;96624.94;;;7.37;100.00
24962;BME280;12992;50.884;13.668;2023-11-21T00:54:41;96629.03;;;7.40;100.00
24962;BME280;12992;50.884;13.668;2023-11-21T00:57:07;96625.19;;;7.36;100.00
24962;BME280;12992;50.884;13.668;2023-11-21T00:59:33;96630.66;;;7.41;100.00
24962;BME280;12992;50.884;13.668;2023-11-21T01:02:00;96632.06;;;7.44;100.00
24962;BME280;12992;50.884;13.668;2023-11-21T01:04:27;96625.38;;;7.51;100.00
24962;BME280;12992;50.884;13.668;2023-11-21T01:06:53;96641.06;;;7.49;100.00
24962;BME280;12992;50.884;13.668;2023-11-21T01:09:18;96628.59;;;7.48;100.00
24962;BME280;12992;50.884;13.668;2023-11-21T01:11:44;96635.63;;;7.49;100.00
24962;BME280;12992;50.884;13.668;2023-11-21T01:14:09;96642.66;;;7.45;100.00
24962;BME280;12992;50.884;13.668;2023-11-21T01:16:36;96641.28;;;7.43;100.00
24962;BME280;12992;50.884;13.668;2023-11-21T01:19:02;96649.88;;;7.39;100.00
24962;BME280;12992;50.884;13.668;2023-11-21T01:21:29;96645.34;;;7.45;100.00
24962;BME280;12992;50.884;13.668;2023-11-21T01:23:56;96648.38;;;7.49;100.00
24962;BME280;12992;50.884;13.668;2023-11-21T01:26:21;96644.03;;;7.48;100.00
24962;BME280;12992;50.884;13.668;2023-11-21T01:28:46;96649.06;;;7.39;100.00
24962;BME280;12992;50.884;13.668;2023-11-21T01:31:14;96648.44;;;7.32;100.00
24962;BME280;12992;50.884;13.668;2023-11-21T01:33:40;96648.19;;;7.33;100.00
24962;BME280;12992;50.884;13.668;2023-11-21T01:36:06;96644.41;;;7.34;100.00
24962;BME280;12992;50.884;13.668;2023-11-21T01:38:32;96642.19;;;7.31;100.00
24962;BME280;12992;50.884;13.668;2023-11-21T01:40:59;96641.63;;;7.29;100.00
24962;BME280;12992;50.884;13.668;2023-11-21T01:43:26;96642.19;;;7.31;100.00
24962;BME280;12992;50.884;13.668;2023-11-21T01:45:52;96645.59;;;7.22;100.00
24962;BME280;12992;50.884;13.668;2023-11-21T01:48:19;96650.00;;;7.28;100.00
24962;BME280;12992;50.884;13.668;2023-11-21T01:50:46;96647.69;;;7.36;100.00
24962;BME280;12992;50.884;13.668;2023-11-21T01:53:13;96646.06;;;7.35;100.00
24962;BME280;12992;50.884;13.668;2023-11-21T01:55:40;96645.16;;;7.30;100.00
24962;BME280;12992;50.884;13.668;2023-11-21T01:58:06;96643.59;;;7.34;100.00
24962;BME280;12992;50.884;13.668;2023-11-21T02:00:32;96639.88;;;7.40;100.00
24962;BME280;12992;50.884;13.668;2023-11-21T02:02:58;96636.59;;;7.38;100.00
24962;BME280;12992;50.884;13.668;2023-11-21T02:05:24;96629.47;;;7.32;100.00
24962;BME280;12992;50.884;13.668;2023-11-21T02:07:51;96633.59;;;7.34;100.00
24962;BME280;12992;50.884;13.668;2023-11-21T02:10:18;96636.78;;;7.31;100.00
24962;BME280;12992;50.884;13.668;2023-11-21T02:12:50;96635.97;;;7.31;100.00
24962;BME280;12992;50.884;13.668;2023-11-21T02:15:17;96633.25;;;7.31;100.00
24962;BME280;12992;50.884;13.668;2023-11-21T02:17:46;96641.38;;;7.31;100.00
24962;BME280;12992;50.884;13.668;2023-11-21T02:20:22;96640.50;;;7.25;100.00
24962;BME280;12992;50.884;13.668;2023-11-21T02:22:51;96637.53;;;7.27;100.00
24962;BME280;12992;50.884;13.668;2023-11-21T02:25:26;96641.94;;;7.33;100.00
24962;BME280;12992;50.884;13.668;2023-11-21T02:27:55;96635.09;;;7.25;100.00
24962;BME280;12992;50.884;13.668;2023-11-21T02:30:22;96638.84;;;7.24;100.00
24962;BME280;12992;50.884;13.668;2023-11-21T02:32:48;96640.94;;;7.17;100.00
24962;BME280;12992;50.884;13.668;2023-11-21T02:35:14;96643.66;;;7.17;100.00
24962;BME280;12992;50.884;13.668;2023-11-21T02:37:41;96640.56;;;7.08;100.00
24962;BME280;12992;50.884;13.668;2023-11-21T02:40:09;96648.34;;;7.05;100.00
24962;BME280;12992;50.884;13.668;2023-11-21T02:42:35;96651.38;;;7.08;100.00
24962;BME280;12992;50.884;13.668;2023-11-21T02:45:00;96658.44;;;7.09;100.00
24962;BME280;12992;50.884;13.668;2023-11-21T02:47:25;96652.38;;;7.02;100.00
24962;BME280;12992;50.884;13.668;2023-11-21T02:49:51;96659.59;;;6.97;100.00
24962;BME280;12992;50.884;13.668;2023-11-21T02:52:18;96659.41;;;7.03;100.00
24962;BME280;12992;50.884;13.668;2023-11-21T02:54:44;96646.78;;;7.09;100.00
24962;BME280;12992;50.884;13.668;2023-11-21T02:57:09;96655.84;;;7.20;100.00
24962;BME280;12992;50.884;13.668;2023-11-21T02:59:35;96647.44;;;7.16;100.00
24962;BME280;12992;50.884;13.668;2023-11-21T03:02:00;96653.41;;;7.18;100.00
24962;BME280;12992;50.884;13.668;2023-11-21T03:04:26;96646.75;;;7.26;100.00
24962;BME280;12992;50.884;13.668;2023-11-21T03:06:52;96652.91;;;7.21;100.00
24962;BME280;12992;50.884;13.668;2023-11-21T03:09:17;96653.72;;;7.22;100.00
24962;BME280;12992;50.884;13.668;2023-11-21T03:11:43;96659.69;;;7.24;100.00
24962;BME280;12992;50.884;13.668;2023-11-21T03:14:08;96664.88;;;7.25;100.00
24962;BME280;12992;50.884;13.668;2023-11-21T03:16:34;96658.66;;;7.25;100.00
24962;BME280;12992;50.884;13.668;2023-11-21T03:18:59;96658.88;;;7.23;100.00
24962;BME280;12992;50.884;13.668;2023-11-21T03:21:25;96660.03;;;7.27;100.00
24962;BME280;12992;50.884;13.668;2023-11-21T03:23:51;96669.66;;;7.18;100.00
24962;BME280;12992;50.884;13.668;2023-11-21T03:26:18;96674.50;;;7.16;100.00
24962;BME280;12992;50.884;13.668;2023-11-21T03:28:43;96655.78;;;7.15;100.00
24962;BME280;12992;50.884;13.668;2023-11-21T03:31:08;96660.72;;;7.18;100.00
24962;BME280;12992;50.884;13.668;2023-11-21T03:33:34;96659.13;;;7.22;100.00
24962;BME280;12992;50.884;13.668;2023-11-21T03:36:00;96664.66;;;7.10;100.00
24962;BME280;12992;50.884;13.668;2023-11-21T03:38:25;96666.47;;;7.04;100.00
24962;BME280;12992;50.884;13.668;2023-11-21T03:40:51;96671.06;;;7.04;100.00
24962;BME280;12992;50.884;13.668;2023-11-21T03:43:16;96673.53;;;7.05;100.00
24962;BME280;12992;50.884;13.668;2023-11-21T03:45:41;96677.94;;;7.12;100.00
24962;BME280;12992;50.884;13.668;2023-11-21T03:48:07;96670.66;;;7.12;100.00
24962;BME280;12992;50.884;13.668;2023-11-21T03:50:36;96676.44;;;7.21;100.00
24962;BME280;12992;50.884;13.668;2023-11-21T03:53:01;96674.97;;;7.13;100.00
24962;BME280;12992;50.884;13.668;2023-11-21T03:55:29;96672.53;;;7.12;100.00
24962;BME280;12992;50.884;13.668;2023-11-21T03:57:56;96680.97;;;7.15;100.00
24962;BME280;12992;50.884;13.668;2023-11-21T04:00:22;96673.91;;;7.14;100.00
24962;BME280;12992;50.884;13.668;2023-11-21T04:02:47;96676.88;;;7.13;100.00
24962;BME280;12992;50.884;13.668;2023-11-21T04:05:13;96672.53;;;7.12;100.00
24962;BME280;12992;50.884;13.668;2023-11-21T04:07:38;96677.63;;;7.08;100.00
24962;BME280;12992;50.884;13.668;2023-11-21T04:10:07;96682.84;;;7.15;100.00
24962;BME280;12992;50.884;13.668;2023-11-21T04:12:35;96678.19;;;7.10;100.00
24962;BME280;12992;50.884;13.668;2023-11-21T04:15:00;96681.16;;;7.08;100.00
24962;BME280;12992;50.884;13.668;2023-11-21T04:17:25;96681.16;;;7.08;100.00
24962;BME280;12992;50.884;13.668;2023-11-21T04:19:51;96687.41;;;7.09;100.00
24962;BME280;12992;50.884;13.668;2023-11-21T04:22:16;96688.47;;;7.08;100.00
24962;BME280;12992;50.884;13.668;2023-11-21T04:24:41;96692.47;;;7.05;100.00
24962;BME280;12992;50.884;13.668;2023-11-21T04:27:07;96690.84;;;7.04;100.00
24962;BME280;12992;50.884;13.668;2023-11-21T04:29:33;96691.91;;;7.03;100.00
24962;BME280;12992;50.884;13.668;2023-11-21T04:31:58;96692.88;;;6.97;100.00
24962;BME280;12992;50.884;13.668;2023-11-21T04:34:23;96700.78;;;6.99;100.00
24962;BME280;12992;50.884;13.668;2023-11-21T04:36:49;96695.38;;;6.99;100.00
24962;BME280;12992;50.884;13.668;2023-11-21T04:39:15;96693.22;;;7.01;100.00
24962;BME280;12992;50.884;13.668;2023-11-21T04:41:40;96706.00;;;7.05;100.00
24962;BME280;12992;50.884;13.668;2023-11-21T04:44:06;96715.34;;;7.15;100.00
24962;BME280;12992;50.884;13.668;2023-11-21T04:46:31;96701.91;;;7.20;100.00
24962;BME280;12992;50.884;13.668;2023-11-21T04:48:58;96704.59;;;7.20;100.00
24962;BME280;12992;50.884;13.668;2023-11-21T04:51:24;96708.13;;;7.20;100.00
24962;BME280;12992;50.884;13.668;2023-11-21T04:53:49;96708.28;;;7.14;100.00
24962;BME280;12992;50.884;13.668;2023-11-21T04:56:14;96707.63;;;7.23;100.00
24962;BME280;12992;50.884;13.668;2023-11-21T04:58:41;96704.69;;;7.25;100.00
24962;BME280;12992;50.884;13.668;2023-11-21T05:01:09;96702.72;;;7.20;100.00
24962;BME280;12992;50.884;13.668;2023-11-21T05:03:35;96704.50;;;7.15;100.00
24962;BME280;12992;50.884;13.668;2023-11-21T05:06:00;96703.13;;;7.12;100.00
24962;BME280;12992;50.884;13.668;2023-11-21T05:08:25;96706.09;;;7.10;100.00
24962;BME280;12992;50.884;13.668;2023-11-21T05:10:52;96713.66;;;7.08;100.00
24962;BME280;12992;50.884;13.668;2023-11-21T05:13:18;96718.00;;;7.09;100.00
24962;BME280;12992;50.884;13.668;2023-11-21T05:15:45;96720.53;;;7.16;100.00
24962;BME280;12992;50.884;13.668;2023-11-21T05:18:10;96723.47;;;7.15;100.00
24962;BME280;12992;50.884;13.668;2023-11-21T05:20:36;96725.69;;;7.18;100.00
24962;BME280;12992;50.884;13.668;2023-11-21T05:23:02;96726.25;;;7.20;100.00
24962;BME280;12992;50.884;13.668;2023-11-21T05:25:27;96721.09;;;7.18;100.00
24962;BME280;12992;50.884;13.668;2023-11-21T05:27:53;96724.13;;;7.22;100.00
24962;BME280;12992;50.884;13.668;2023-11-21T05:30:20;96728.97;;;7.20;100.00
24962;BME280;12992;50.884;13.668;2023-11-21T05:32:46;96726.53;;;7.18;100.00
24962;BME280;12992;50.884;13.668;2023-11-21T05:35:12;96733.06;;;7.22;100.00
24962;BME280;12992;50.884;13.668;2023-11-21T05:37:40;96729.28;;;7.23;100.00
24962;BME280;12992;50.884;13.668;2023-11-21T05:40:07;96739.28;;;7.23;100.00
24962;BME280;12992;50.884;13.668;2023-11-21T05:42:33;96738.81;;;7.26;100.00
24962;BME280;12992;50.884;13.668;2023-11-21T05:44:59;96740.47;;;7.27;100.00
24962;BME280;12992;50.884;13.668;2023-11-21T05:47:34;96744.63;;;7.34;100.00
24962;BME280;12992;50.884;13.668;2023-11-21T05:50:00;96740.59;;;7.37;100.00
24962;BME280;12992;50.884;13.668;2023-11-21T05:52:26;96749.97;;;7.29;100.00
24962;BME280;12992;50.884;13.668;2023-11-21T05:54:51;96747.00;;;7.31;100.00
24962;BME280;12992;50.884;13.668;2023-11-21T05:57:16;96730.31;;;7.17;100.00
24962;BME280;12992;50.884;13.668;2023-11-21T05:59:42;96746.47;;;7.12;100.00
24962;BME280;12992;50.884;13.668;2023-11-21T06:02:07;96739.16;;;7.13;100.00
24962;BME280;12992;50.884;13.668;2023-11-21T06:04:33;96750.53;;;7.15;100.00
24962;BME280;12992;50.884;13.668;2023-11-21T06:06:58;96751.31;;;7.10;100.00
24962;BME280;12992;50.884;13.668;2023-11-21T06:09:23;96760.25;;;7.10;100.00
24962;BME280;12992;50.884;13.668;2023-11-21T06:11:50;96758.03;;;7.07;100.00
24962;BME280;12992;50.884;13.668;2023-11-21T06:14:15;96754.25;;;7.08;100.00
24962;BME280;12992;50.884;13.668;2023-11-21T06:16:43;96757.84;;;7.14;100.00
24962;BME280;12992;50.884;13.668;2023-11-21T06:19:10;96764.91;;;7.15;100.00
24962;BME280;12992;50.884;13.668;2023-11-21T06:21:35;96763.09;;;7.21;100.00
24962;BME280;12992;50.884;13.668;2023-11-21T06:24:01;96762.78;;;7.17;100.00
24962;BME280;12992;50.884;13.668;2023-11-21T06:26:26;96761.97;;;7.17;100.00
24962;BME280;12992;50.884;13.668;2023-11-21T06:28:52;96766.06;;;7.19;100.00
24962;BME280;12992;50.884;13.668;2023-11-21T06:31:18;96759.09;;;7.06;100.00
24962;BME280;12992;50.884;13.668;2023-11-21T06:33:43;96760.81;;;6.96;100.00
24962;BME280;12992;50.884;13.668;2023-11-21T06:36:09;96771.41;;;6.80;100.00
24962;BME280;12992;50.884;13.668;2023-11-21T06:38:36;96777.22;;;6.72;100.00
24962;BME280;12992;50.884;13.668;2023-11-21T06:41:02;96772.13;;;6.59;100.00
24962;BME280;12992;50.884;13.668;2023-11-21T06:43:27;96774.25;;;6.57;100.00
24962;BME280;12992;50.884;13.668;2023-11-21T06:45:52;96773.25;;;6.46;100.00
24962;BME280;12992;50.884;13.668;2023-11-21T06:48:18;96775.03;;;6.41;100.00
24962;BME280;12992;50.884;13.668;2023-11-21T06:50:43;96769.56;;;6.24;100.00
24962;BME280;12992;50.884;13.668;2023-11-21T06:53:09;96779.44;;;6.30;100.00
24962;BME280;12992;50.884;13.668;2023-11-21T06:55:35;96779.09;;;6.27;100.00
24962;BME280;12992;50.884;13.668;2023-11-21T06:58:00;96788.63;;;6.29;100.00
24962;BME280;12992;50.884;13.668;2023-11-21T07:00:26;96785.72;;;6.19;100.00
24962;BME280;12992;50.884;13.668;2023-11-21T07:02:54;96799.19;;;6.31;100.00
24962;BME280;12992;50.884;13.668;2023-11-21T07:05:20;96796.78;;;6.46;100.00
24962;BME280;12992;50.884;13.668;2023-11-21T07:07:46;96796.88;;;6.68;100.00
24962;BME280;12992;50.884;13.668;2023-11-21T07:10:13;96795.13;;;6.90;100.00
24962;BME280;12992;50.884;13.668;2023-11-21T07:12:38;96797.50;;;7.03;100.00
24962;BME280;12992;50.884;13.668;2023-11-21T07:15:06;96800.13;;;6.98;100.00
24962;BME280;12992;50.884;13.668;2023-11-21T07:17:34;96800.75;;;7.05;100.00
24962;BME280;12992;50.884;13.668;2023-11-21T07:20:01;96808.00;;;7.17;100.00
24962;BME280;12992;50.884;13.668;2023-11-21T07:22:26;96810.94;;;7.32;100.00
24962;BME280;12992;50.884;13.668;2023-11-21T07:24:51;96812.91;;;7.36;100.00
24962;BME280;12992;50.884;13.668;2023-11-21T07:27:17;96805.28;;;7.33;100.00
24962;BME280;12992;50.884;13.668;2023-11-21T07:29:42;96812.34;;;7.34;100.00
24962;BME280;12992;50.884;13.668;2023-11-21T07:32:08;96808.97;;;7.44;100.00
24962;BME280;12992;50.884;13.668;2023-11-21T07:34:34;96812.75;;;7.43;100.00
24962;BME280;12992;50.884;13.668;2023-11-21T07:37:00;96819.25;;;7.42;100.00
24962;BME280;12992;50.884;13.668;2023-11-21T07:39:25;96814.66;;;7.43;100.00
24962;BME280;12992;50.884;13.668;2023-11-21T07:41:50;96819.47;;;7.41;100.00
24962;BME280;12992;50.884;13.668;2023-11-21T07:44:16;96812.50;;;7.45;100.00
24962;BME280;12992;50.884;13.668;2023-11-21T07:46:42;96817.91;;;7.45;100.00
24962;BME280;12992;50.884;13.668;2023-11-21T07:49:08;96823.00;;;7.41;100.00
24962;BME280;12992;50.884;13.668;2023-11-21T07:51:34;96825.13;;;7.39;100.00
24962;BME280;12992;50.884;13.668;2023-11-21T07:53:59;96828.75;;;7.28;100.00
24962;BME280;12992;50.884;13.668;2023-11-21T07:56:25;96836.31;;;7.26;100.00
24962;BME280;12992;50.884;13.668;2023-11-21T07:58:51;96832.28;;;7.28;100.00
24962;BME280;12992;50.884;13.668;2023-11-21T08:01:16;96838.94;;;7.21;100.00
24962;BME280;12992;50.884;13.668;2023-11-21T08:03:41;96835.56;;;7.14;100.00
24962;BME280;12992;50.884;13.668;2023-11-21T08:06:07;96837.28;;;7.20;100.00
24962;BME280;12992;50.884;13.668;2023-11-21T08:08:33;96844.84;;;7.18;100.00
24962;BME280;12992;50.884;13.668;2023-11-21T08:10:59;96836.97;;;7.16;100.00
24962;BME280;12992;50.884;13.668;2023-11-21T08:13:28;96845.66;;;7.18;100.00
24962;BME280;12992;50.884;13.668;2023-11-21T08:15:54;96839.09;;;7.14;100.00
24962;BME280;12992;50.884;13.668;2023-11-21T08:18:20;96843.69;;;7.14;100.00
24962;BME280;12992;50.884;13.668;2023-11-21T08:20:45;96845.00;;;7.11;100.00
24962;BME280;12992;50.884;13.668;2023-11-21T08:23:16;96846.75;;;7.17;100.00
24962;BME280;12992;50.884;13.668;2023-11-21T08:25:45;96846.75;;;7.17;100.00
24962;BME280;12992;50.884;13.668;2023-11-21T08:28:11;96844.44;;;7.26;100.00
24962;BME280;12992;50.884;13.668;2023-11-21T08:30:37;96846.16;;;7.32;100.00
24962;BME280;12992;50.884;13.668;2023-11-21T08:33:02;96856.50;;;7.35;100.00
24962;BME280;12992;50.884;13.668;2023-11-21T08:35:29;96845.72;;;7.40;100.00
24962;BME280;12992;50.884;13.668;2023-11-21T08:37:55;96855.03;;;7.44;100.00
24962;BME280;12992;50.884;13.668;2023-11-21T08:40:20;96853.69;;;7.47;100.00
24962;BME280;12992;50.884;13.668;2023-11-21T08:42:46;96852.97;;;7.51;100.00
24962;BME280;12992;50.884;13.668;2023-11-21T08:45:16;96861.09;;;7.51;100.00
24962;BME280;12992;50.884;13.668;2023-11-21T08:47:43;96855.69;;;7.51;100.00
24962;BME280;12992;50.884;13.668;2023-11-21T08:50:09;96852.88;;;7.46;100.00
24962;BME280;12992;50.884;13.668;2023-11-21T08:52:35;96853.38;;;7.43;100.00
24962;BME280;12992;50.884;13.668;2023-11-21T08:55:02;96864.22;;;7.43;100.00
24962;BME280;12992;50.884;13.668;2023-11-21T08:57:33;96852.88;;;7.46;100.00
24962;BME280;12992;50.884;13.668;2023-11-21T08:59:59;96856.72;;;7.50;100.00
24962;BME280;12992;50.884;13.668;2023-11-21T09:02:27;96857.31;;;7.52;100.00
24962;BME280;12992;50.884;13.668;2023-11-21T09:04:52;96860.34;;;7.56;100.00
24962;BME280;12992;50.884;13.668;2023-11-21T09:07:18;96868.38;;;7.67;100.00
24962;BME280;12992;50.884;13.668;2023-11-21T09:09:46;96862.53;;;7.59;100.00
24962;BME280;12992;50.884;13.668;2023-11-21T09:12:12;96861.16;;;7.56;100.00
24962;BME280;12992;50.884;13.668;2023-11-21T09:14:38;96866.06;;;7.59;100.00
24962;BME280;12992;50.884;13.668;2023-11-21T09:17:04;96864.69;;;7.57;100.00
24962;BME280;12992;50.884;13.668;2023-11-21T09:19:29;96875.06;;;7.60;100.00
24962;BME280;12992;50.884;13.668;2023-11-21T09:21:54;96877.84;;;7.48;100.00
24962;BME280;12992;50.884;13.668;2023-11-21T09:24:22;96873.47;;;7.47;100.00
24962;BME280;12992;50.884;13.668;2023-11-21T09:26:47;96883.59;;;7.52;100.00
24962;BME280;12992;50.884;13.668;2023-11-21T09:29:12;96877.84;;;7.48;100.00
24962;BME280;12992;50.884;13.668;2023-11-21T09:31:38;96880.13;;;7.39;100.00
24962;BME280;12992;50.884;13.668;2023-11-21T09:34:03;96881.19;;;7.38;100.00
24962;BME280;12992;50.884;13.668;2023-11-21T09:36:29;96884.72;;;7.39;100.00
24962;BME280;12992;50.884;13.668;2023-11-21T09:38:55;96888.66;;;7.48;100.00
24962;BME280;12992;50.884;13.668;2023-11-21T09:41:32;96884.31;;;7.47;100.00
24962;BME280;12992;50.884;13.668;2023-11-21T09:44:02;96896.88;;;7.53;100.00
24962;BME280;12992;50.884;13.668;2023-11-21T09:46:33;96885.25;;;7.53;100.00
24962;BME280;12992;50.884;13.668;2023-11-21T09:49:00;96895.31;;;7.57;100.00
24962;BME280;12992;50.884;13.668;2023-11-21T09:51:27;96889.22;;;7.50;100.00
24962;BME280;12992;50.884;13.668;2023-11-21T09:53:56;96898.84;;;7.41;100.00
24962;BME280;12992;50.884;13.668;2023-11-21T09:56:24;96888.34;;;7.28;100.00
24962;BME280;12992;50.884;13.668;2023-11-21T09:58:53;96897.59;;;7.32;100.00
24962;BME280;12992;50.884;13.668;2023-11-21T10:01:19;96905.72;;;7.32;100.00
24962;BME280;12992;50.884;13.668;2023-11-21T10:03:45;96907.56;;;7.43;100.00
24962;BME280;12992;50.884;13.668;2023-11-21T10:06:13;96905.72;;;7.32;100.00
24962;BME280;12992;50.884;13.668;2023-11-21T10:08:39;96907.97;;;7.35;100.00
24962;BME280;12992;50.884;13.668;2023-11-21T10:11:07;96909.44;;;7.26;100.00
24962;BME280;12992;50.884;13.668;2023-11-21T10:13:34;96908.53;;;7.20;100.00
24962;BME280;12992;50.884;13.668;2023-11-21T10:16:00;96911.47;;;7.19;100.00
24962;BME280;12992;50.884;13.668;2023-11-21T10:18:31;96911.09;;;7.27;100.00
24962;BME280;12992;50.884;13.668;2023-11-21T10:20:59;96909.19;;;7.27;100.00
24962;BME280;12992;50.884;13.668;2023-11-21T10:23:25;96921.00;;;7.38;100.00
24962;BME280;12992;50.884;13.668;2023-11-21T10:25:54;96917.88;;;7.29;100.00
24962;BME280;12992;50.884;13.668;2023-11-21T10:28:20;96921.34;;;7.25;100.00
24962;BME280;12992;50.884;13.668;2023-11-21T10:30:46;96917.56;;;7.26;100.00
24962;BME280;12992;50.884;13.668;2023-11-21T10:33:11;96924.69;;;7.32;100.00
24962;BME280;12992;50.884;13.668;2023-11-21T10:35:48;96925.63;;;7.37;100.00
24962;BME280;12992;50.884;13.668;2023-11-21T10:38:18;96926.44;;;7.38;100.00
24962;BME280;12992;50.884;13.668;2023-11-21T10:40:46;96929.53;;;7.30;100.00
24962;BME280;12992;50.884;13.668;2023-11-21T10:43:13;96929.38;;;7.20;100.00
24962;BME280;12992;50.884;13.668;2023-11-21T10:45:40;96928.75;;;7.01;100.00
24962;BME280;12992;50.884;13.668;2023-11-21T10:48:06;96938.78;;;7.00;100.00
24962;BME280;12992;50.884;13.668;2023-11-21T10:50:42;96933.09;;;7.02;100.00
24962;BME280;12992;50.884;13.668;2023-11-21T10:53:08;96941.09;;;7.08;100.00
24962;BME280;12992;50.884;13.668;2023-11-21T10:55:34;96938.19;;;6.98;100.00
24962;BME280;12992;50.884;13.668;2023-11-21T10:58:01;96942.75;;;6.98;100.00
24962;BME280;12992;50.884;13.668;2023-11-21T11:00:28;96940.41;;;7.01;100.00
24962;BME280;12992;50.884;13.668;2023-11-21T11:02:54;96943.19;;;6.78;100.00
24962;BME280;12992;50.884;13.668;2023-11-21T11:05:22;96953.56;;;6.81;100.00
24962;BME280;12992;50.884;13.668;2023-11-21T11:07:50;96951.44;;;6.83;100.00
24962;BME280;12992;50.884;13.668;2023-11-21T11:10:21;96950.06;;;6.69;100.00
24962;BME280;12992;50.884;13.668;2023-11-21T11:12:48;96968.66;;;6.53;100.00
24962;BME280;12992;50.884;13.668;2023-11-21T11:15:15;96963.06;;;6.43;100.00
24962;BME280;12992;50.884;13.668;2023-11-21T11:17:41;96970.84;;;6.40;100.00
24962;BME280;12992;50.884;13.668;2023-11-21T11:20:08;96968.72;;;6.30;100.00
24962;BME280;12992;50.884;13.668;2023-11-21T11:28:14;96983.09;;;5.95;100.00
24962;BME280;12992;50.884;13.668;2023-11-21T11:33:42;96984.47;;;5.86;100.00
24962;BME280;12992;50.884;13.668;2023-11-21T11:39:31;96991.97;;;5.84;100.00
24962;BME280;12992;50.884;13.668;2023-11-21T11:41:58;96996.66;;;5.77;100.00
24962;BME280;12992;50.884;13.668;2023-11-21T11:47:26;97001.22;;;5.65;100.00
24962;BME280;12992;50.884;13.668;2023-11-21T11:52:34;96996.88;;;5.64;100.00
24962;BME280;12992;50.884;13.668;2023-11-21T11:55:00;97003.09;;;5.64;100.00
24962;BME280;12992;50.884;13.668;2023-11-21T11:57:30;97014.94;;;5.52;100.00
24962;BME280;12992;50.884;13.668;2023-11-21T12:02:36;97022.91;;;5.47;100.00
24962;BME280;12992;50.884;13.668;2023-11-21T12:05:08;97016.88;;;5.33;100.00
24962;BME280;12992;50.884;13.668;2023-11-21T12:07:51;97013.03;;;5.40;100.00
24962;BME280;12992;50.884;13.668;2023-11-21T12:10:20;97009.09;;;5.25;100.00
24962;BME280;12992;50.884;13.668;2023-11-21T12:12:47;97015.00;;;5.33;100.00
24962;BME280;12992;50.884;13.668;2023-11-21T12:15:13;97023.56;;;5.30;100.00
24962;BME280;12992;50.884;13.668;2023-11-21T12:17:41;97025.81;;;5.33;100.00
24962;BME280;12992;50.884;13.668;2023-11-21T12:20:07;97031.78;;;5.35;100.00
24962;BME280;12992;50.884;13.668;2023-11-21T12:22:43;97029.28;;;5.22;100.00
24962;BME280;12992;50.884;13.668;2023-11-21T12:25:08;97025.31;;;5.25;100.00
24962;BME280;12992;50.884;13.668;2023-11-21T12:27:33;97034.72;;;5.04;100.00
24962;BME280;12992;50.884;13.668;2023-11-21T12:29:59;97040.50;;;5.07;100.00
24962;BME280;12992;50.884;13.668;2023-11-21T12:32:24;97044.16;;;5.13;100.00
24962;BME280;12992;50.884;13.668;2023-11-21T12:34:51;97054.25;;;5.18;100.00
24962;BME280;12992;50.884;13.668;2023-11-21T12:37:16;97052.38;;;5.18;100.00
24962;BME280;12992;50.884;13.668;2023-11-21T12:39:42;97059.44;;;5.19;100.00
24962;BME280;12992;50.884;13.668;2023-11-21T12:42:07;97057.03;;;5.11;100.00
24962;BME280;12992;50.884;13.668;2023-11-21T12:44:33;97056.31;;;4.86;100.00
24962;BME280;12992;50.884;13.668;2023-11-21T12:46:59;97066.38;;;4.78;100.00
24962;BME280;12992;50.884;13.668;2023-11-21T12:49:24;97066.22;;;4.73;100.00
24962;BME280;12992;50.884;13.668;2023-11-21T12:51:50;97065.03;;;4.69;100.00
24962;BME280;12992;50.884;13.668;2023-11-21T12:54:16;97078.72;;;4.68;100.00
24962;BME280;12992;50.884;13.668;2023-11-21T12:56:45;97068.03;;;4.61;100.00
24962;BME280;12992;50.884;13.668;2023-11-21T12:59:12;97078.72;;;4.68;100.00
24962;BME280;12992;50.884;13.668;2023-11-21T13:01:42;97076.78;;;4.57;100.00
24962;BME280;12992;50.884;13.668;2023-11-21T13:04:07;97079.69;;;4.55;100.00
24962;BME280;12992;50.884;13.668;2023-11-21T13:06:36;97089.59;;;4.61;100.00